createdAt,value
2019-01-02T00:00:35.993Z,11.93
2019-01-02T00:03:03.305Z,16.17
2019-01-02T00:05:30.957Z,23.47
2019-01-02T00:07:58.238Z,21.97
2019-01-02T00:10:25.661Z,15.50
2019-01-02T00:12:53.009Z,19.33
2019-01-02T00:15:20.537Z,14.53
2019-01-02T00:17:48.094Z,15.37
2019-01-02T00:20:15.989Z,26.47
2019-01-02T00:22:43.238Z,21.97
2019-01-02T00:25:10.594Z,17.87
2019-01-02T00:27:37.873Z,14.00
2019-01-02T00:30:08.629Z,17.70
2019-01-02T00:32:36.190Z,16.67
2019-01-02T00:35:03.705Z,19.57
2019-01-02T00:37:31.334Z,22.90
2019-01-02T00:39:58.605Z,23.47
2019-01-02T00:42:26.134Z,21.17
2019-01-02T00:44:53.398Z,23.67
2019-01-02T00:47:21.058Z,15.90
2019-01-02T00:49:48.311Z,16.63
2019-01-02T00:52:15.831Z,17.83
2019-01-02T00:54:43.101Z,19.03
2019-01-02T00:57:10.753Z,17.97
2019-01-02T00:59:38.075Z,15.33
2019-01-02T01:02:05.345Z,16.90
2019-01-02T01:04:32.633Z,17.03
2019-01-02T01:06:59.909Z,22.80
2019-01-02T01:09:27.435Z,20.47
2019-01-02T01:11:54.982Z,27.03
2019-01-02T01:14:22.673Z,18.73
2019-01-02T01:16:49.952Z,24.00
2019-01-02T01:19:17.865Z,18.70
2019-01-02T01:21:45.138Z,21.33
2019-01-02T01:24:12.555Z,20.00
2019-01-02T01:26:39.830Z,14.87
2019-01-02T01:29:07.118Z,23.77
2019-01-02T01:31:34.633Z,24.43
2019-01-02T01:34:01.908Z,18.23
2019-01-02T01:36:29.187Z,18.80
2019-01-02T01:38:56.438Z,17.23
2019-01-02T01:41:23.723Z,31.40
2019-01-02T01:43:51.244Z,24.13
2019-01-02T01:46:18.492Z,21.40
2019-01-02T01:48:46.048Z,19.47
2019-01-02T01:51:13.327Z,21.90
2019-01-02T01:53:40.578Z,22.47
2019-01-02T01:56:08.227Z,21.20
2019-01-02T01:58:35.506Z,16.83
2019-01-02T02:01:03.126Z,20.60
2019-01-02T02:03:30.410Z,17.07
2019-01-02T02:05:57.654Z,22.50
2019-01-02T02:08:25.315Z,22.23
2019-01-02T02:10:52.637Z,21.37
2019-01-02T02:13:20.257Z,28.47
2019-01-02T02:15:47.540Z,25.23
2019-01-02T02:18:14.868Z,15.87
2019-01-02T02:20:42.513Z,18.23
2019-01-02T02:23:09.792Z,18.17
2019-01-02T02:25:37.440Z,18.03
2019-01-02T02:28:04.690Z,26.20
2019-01-02T02:30:31.978Z,27.13
2019-01-02T02:32:59.229Z,23.93
2019-01-02T02:35:26.577Z,22.00
2019-01-02T02:37:54.299Z,18.27
2019-01-02T02:40:21.569Z,24.53
2019-01-02T02:42:48.820Z,26.53
2019-01-02T02:45:16.370Z,28.50
2019-01-02T02:47:44.274Z,24.90
2019-01-02T02:50:13.167Z,16.50
2019-01-02T02:52:40.442Z,21.03
2019-01-02T02:55:08.901Z,24.23
2019-01-02T02:57:36.162Z,20.50
2019-01-02T03:00:05.152Z,21.50
2019-01-02T03:02:32.433Z,19.10
2019-01-02T03:04:59.678Z,23.83
2019-01-02T03:07:27.334Z,18.97
2019-01-02T03:09:54.653Z,14.87
2019-01-02T03:12:22.306Z,17.53
2019-01-02T03:14:49.570Z,16.60
2019-01-02T03:17:16.849Z,27.43
2019-01-02T03:19:44.478Z,23.97
2019-01-02T03:22:12.030Z,20.97
2019-01-02T03:24:39.577Z,24.40
2019-01-02T03:27:07.106Z,18.83
2019-01-02T03:29:34.463Z,27.10
2019-01-02T03:32:02.087Z,21.50
2019-01-02T03:34:29.746Z,29.33
2019-01-02T03:36:57.031Z,18.13
2019-01-02T03:39:24.281Z,28.03
2019-01-02T03:41:51.796Z,17.37
2019-01-02T03:44:19.074Z,22.20
2019-01-02T03:46:46.325Z,29.53
2019-01-02T03:49:13.620Z,21.33
2019-01-02T03:51:40.950Z,27.37
2019-01-02T03:54:08.194Z,16.07
2019-01-02T03:56:35.461Z,19.23
2019-01-02T03:59:02.714Z,26.43
2019-01-02T04:01:29.996Z,19.60
2019-01-02T04:03:57.237Z,19.73
2019-01-02T04:06:24.509Z,25.20
2019-01-02T04:08:51.790Z,12.83
2019-01-02T04:11:19.047Z,19.77
2019-01-02T04:13:46.327Z,29.57
2019-01-02T04:16:13.602Z,24.23
2019-01-02T04:18:40.845Z,20.70
2019-01-02T04:21:08.384Z,29.47
2019-01-02T04:23:35.652Z,15.47
2019-01-02T04:26:02.899Z,19.93
2019-01-02T04:28:30.254Z,17.53
2019-01-02T04:30:57.502Z,15.40
2019-01-02T04:33:24.767Z,19.80
2019-01-02T04:35:52.043Z,13.77
2019-01-02T04:38:19.317Z,20.70
2019-01-02T04:40:46.565Z,18.20
2019-01-02T04:43:13.842Z,19.60
2019-01-02T04:45:41.122Z,22.67
2019-01-02T04:48:08.399Z,22.10
2019-01-02T04:50:35.677Z,15.13
2019-01-02T04:53:02.931Z,18.43
2019-01-02T04:55:30.177Z,21.27
2019-01-02T04:57:57.719Z,23.90
2019-01-02T05:00:24.990Z,22.77
2019-01-02T05:02:52.267Z,15.33
2019-01-02T05:05:19.510Z,24.10
2019-01-02T05:07:46.795Z,27.57
2019-01-02T05:10:14.047Z,20.50
2019-01-02T05:12:41.338Z,17.70
2019-01-02T05:15:09.608Z,21.07
2019-01-02T05:17:36.888Z,20.43
2019-01-02T05:20:05.607Z,28.17
2019-01-02T05:22:32.882Z,26.03
2019-01-02T05:25:00.176Z,24.60
2019-01-02T05:27:27.509Z,20.93
2019-01-02T05:29:54.762Z,23.50
2019-01-02T05:32:22.319Z,30.07
2019-01-02T05:34:49.563Z,27.00
2019-01-02T05:37:16.809Z,18.53
2019-01-02T05:39:44.086Z,25.97
2019-01-02T05:42:11.358Z,22.90
2019-01-02T05:44:38.606Z,25.70
2019-01-02T05:47:05.887Z,21.77
2019-01-02T05:49:33.406Z,31.17
2019-01-02T05:52:01.925Z,23.17
2019-01-02T05:54:29.205Z,19.93
2019-01-02T05:56:56.449Z,34.77
2019-01-02T05:59:23.724Z,15.83
2019-01-02T06:01:50.976Z,21.63
2019-01-02T06:04:18.225Z,36.13
2019-01-02T06:06:45.505Z,25.37
2019-01-02T06:09:13.014Z,28.43
2019-01-02T06:11:40.565Z,20.73
2019-01-02T06:14:08.107Z,28.43
2019-01-02T06:16:35.386Z,24.50
2019-01-02T06:19:02.626Z,28.87
2019-01-02T06:21:29.922Z,21.03
2019-01-02T06:23:57.174Z,24.53
2019-01-02T06:26:24.423Z,23.33
2019-01-02T06:28:51.699Z,33.13
2019-01-02T06:31:18.960Z,25.13
2019-01-02T06:33:46.489Z,24.17
2019-01-02T06:36:13.766Z,26.90
2019-01-02T06:38:41.021Z,19.87
2019-01-02T06:41:08.293Z,32.77
2019-01-02T06:43:35.571Z,20.27
2019-01-02T06:46:02.837Z,22.90
2019-01-02T06:48:30.120Z,24.67
2019-01-02T06:50:57.372Z,21.10
2019-01-02T06:53:24.651Z,29.87
2019-01-02T06:55:51.898Z,37.80
2019-01-02T06:58:19.170Z,27.80
2019-01-02T07:00:46.762Z,27.50
2019-01-02T07:03:14.045Z,32.90
2019-01-02T07:05:41.554Z,22.30
2019-01-02T07:08:08.821Z,31.03
2019-01-02T07:10:36.101Z,23.97
2019-01-02T07:13:03.353Z,22.47
2019-01-02T07:15:30.883Z,26.37
2019-01-02T07:17:58.134Z,24.70
2019-01-02T07:20:25.410Z,37.07
2019-01-02T07:22:52.690Z,19.33
2019-01-02T07:25:19.943Z,23.50
2019-01-02T07:27:47.226Z,23.00
2019-01-02T07:30:16.171Z,22.67
2019-01-02T07:32:43.525Z,25.80
2019-01-02T07:35:24.375Z,30.60
2019-01-02T07:38:02.270Z,17.83
2019-01-02T07:40:47.354Z,20.63
2019-01-02T07:43:19.116Z,20.83
2019-01-02T07:45:47.902Z,27.10
2019-01-02T07:48:16.954Z,22.20
2019-01-02T07:50:45.764Z,22.13
2019-01-02T07:53:20.659Z,23.40
2019-01-02T07:55:49.499Z,21.43
2019-01-02T07:58:21.309Z,26.63
2019-01-02T08:00:50.183Z,26.40
2019-01-02T08:03:24.902Z,20.37
2019-01-02T08:05:59.705Z,19.43
2019-01-02T08:08:43.339Z,18.03
2019-01-02T08:11:12.155Z,17.07
2019-01-02T08:13:57.151Z,17.83
2019-01-02T08:16:37.754Z,17.57
2019-01-02T08:19:06.575Z,17.87
2019-01-02T08:21:51.703Z,16.73
2019-01-02T08:24:29.454Z,17.80
2019-01-02T08:27:01.227Z,19.13
2019-01-02T08:29:35.982Z,17.70
2019-01-02T08:32:22.658Z,17.40
2019-01-02T08:35:03.371Z,20.93
2019-01-02T08:37:44.194Z,22.50
2019-01-02T08:40:27.834Z,22.60
2019-01-02T08:43:05.446Z,14.70
2019-01-02T08:45:43.335Z,16.97
2019-01-02T08:48:17.904Z,15.50
2019-01-02T08:50:58.542Z,18.83
2019-01-02T08:53:33.338Z,17.77
2019-01-02T08:56:02.160Z,22.40
2019-01-02T08:58:36.637Z,25.43
2019-01-02T09:01:20.505Z,24.40
2019-01-02T09:03:58.548Z,25.10
2019-01-02T09:06:42.429Z,24.50
2019-01-02T09:09:11.212Z,17.03
2019-01-02T09:11:42.715Z,29.03
2019-01-02T09:14:23.602Z,22.73
2019-01-02T09:17:01.465Z,22.37
2019-01-02T09:19:33.070Z,22.47
2019-01-02T09:22:07.956Z,24.57
2019-01-02T09:24:40.682Z,28.63
2019-01-02T09:27:12.395Z,32.17
2019-01-02T09:29:49.888Z,22.07
2019-01-02T09:32:18.986Z,21.07
2019-01-02T09:34:47.912Z,29.00
2019-01-02T09:37:17.008Z,23.77
2019-01-02T09:39:45.813Z,25.67
2019-01-02T09:42:23.664Z,25.30
2019-01-02T09:44:55.401Z,29.37
2019-01-02T09:47:24.271Z,19.40
2019-01-02T09:49:53.062Z,22.37
2019-01-02T09:52:21.878Z,24.13
2019-01-02T09:55:01.478Z,23.73
2019-01-02T09:57:39.037Z,19.10
2019-01-02T10:00:24.291Z,26.97
2019-01-02T10:03:07.978Z,24.67
2019-01-02T10:05:37.066Z,25.83
2019-01-02T10:08:08.504Z,21.63
2019-01-02T10:10:43.224Z,25.93
2019-01-02T10:13:12.042Z,19.43
2019-01-02T10:15:46.633Z,18.90
2019-01-02T10:18:15.452Z,19.40
2019-01-02T10:20:44.504Z,23.73
2019-01-02T10:23:29.867Z,18.60
2019-01-02T10:25:58.652Z,17.73
2019-01-02T10:28:43.882Z,17.30
2019-01-02T10:31:15.331Z,20.40
2019-01-02T10:33:47.089Z,18.87
2019-01-02T10:36:27.940Z,15.93
2019-01-02T10:38:57.020Z,19.10
2019-01-02T10:41:28.495Z,18.87
2019-01-02T10:44:13.642Z,31.50
2019-01-02T10:46:51.373Z,26.63
2019-01-02T10:49:20.186Z,17.10
2019-01-02T10:52:05.270Z,19.77
2019-01-02T10:54:46.095Z,25.10
2019-01-02T10:57:14.910Z,22.70
2019-01-02T11:00:01.586Z,23.70
2019-01-02T11:02:30.393Z,23.50
2019-01-02T11:04:59.210Z,25.47
2019-01-02T11:07:30.690Z,21.27
2019-01-02T11:10:02.123Z,20.63
2019-01-02T11:12:39.721Z,19.80
2019-01-02T11:15:17.162Z,30.90
2019-01-02T11:17:48.657Z,25.17
2019-01-02T11:20:26.427Z,26.47
2019-01-02T11:22:55.239Z,16.97
2019-01-02T11:25:39.049Z,21.30
2019-01-02T11:28:13.590Z,23.77
2019-01-02T11:30:45.348Z,24.13
2019-01-02T11:33:14.135Z,24.93
2019-01-02T11:35:42.997Z,20.60
2019-01-02T11:38:11.804Z,21.10
2019-01-02T11:40:56.806Z,22.53
2019-01-02T11:43:37.733Z,16.20
2019-01-02T11:46:05.267Z,18.27
2019-01-02T11:48:32.506Z,24.57
2019-01-02T11:50:59.791Z,14.80
2019-01-02T11:53:27.068Z,15.37
2019-01-02T11:55:54.315Z,21.73
2019-01-02T11:58:21.586Z,19.27
2019-01-02T12:00:49.110Z,16.43
2019-01-02T12:03:16.391Z,19.70
2019-01-02T12:05:43.882Z,18.73
2019-01-02T12:08:11.163Z,16.83
2019-01-02T12:10:38.437Z,13.37
2019-01-02T12:13:07.056Z,15.10
2019-01-02T12:15:34.438Z,25.30
2019-01-02T12:18:01.682Z,8.50
2019-01-02T12:20:28.974Z,15.17
2019-01-02T12:22:56.226Z,10.47
2019-01-02T12:25:23.475Z,9.93
2019-01-02T12:27:50.760Z,13.47
2019-01-02T12:30:18.030Z,11.63
2019-01-02T12:32:45.544Z,9.07
2019-01-02T12:35:13.257Z,8.60
2019-01-02T12:37:40.535Z,15.00
2019-01-02T12:40:07.850Z,12.53
2019-01-02T12:42:35.123Z,10.40
2019-01-02T12:45:02.374Z,17.17
2019-01-02T12:47:29.650Z,9.37
2019-01-02T12:49:56.903Z,11.03
2019-01-02T12:52:24.183Z,11.60
2019-01-02T12:54:51.433Z,12.23
2019-01-02T12:57:18.710Z,7.80
2019-01-02T12:59:45.957Z,15.33
2019-01-02T13:02:29.562Z,15.17
2019-01-02T13:04:58.342Z,14.30
2019-01-02T13:07:29.834Z,12.50
2019-01-02T13:09:58.655Z,17.43
2019-01-02T13:12:33.213Z,11.47
2019-01-02T13:15:04.934Z,10.33
2019-01-02T13:17:33.980Z,11.93
2019-01-02T13:20:03.046Z,14.43
2019-01-02T13:22:31.830Z,24.93
2019-01-02T13:25:06.655Z,20.23
2019-01-02T13:27:35.436Z,9.43
2019-01-02T13:30:09.991Z,13.60
2019-01-02T13:32:41.718Z,10.13
2019-01-02T13:35:10.506Z,10.73
2019-01-02T13:37:48.382Z,3.93
2019-01-02T13:40:33.641Z,9.07
2019-01-02T13:43:17.486Z,17.63
2019-01-02T13:45:46.536Z,13.80
2019-01-02T13:48:33.198Z,8.40
2019-01-02T13:51:01.986Z,8.67
2019-01-02T13:53:29.225Z,8.00
2019-01-02T13:55:56.489Z,9.80
2019-01-02T13:58:23.766Z,8.43
2019-01-02T14:00:51.566Z,9.70
2019-01-02T14:03:18.963Z,9.90
2019-01-02T14:05:46.570Z,9.40
2019-01-02T14:08:14.005Z,10.50
2019-01-02T14:10:41.571Z,19.23
2019-01-02T14:13:08.815Z,9.23
2019-01-02T14:15:36.086Z,11.53
2019-01-02T14:18:03.324Z,10.93
2019-01-02T14:20:30.874Z,13.17
2019-01-02T14:22:58.395Z,9.30
2019-01-02T14:25:25.746Z,15.87
2019-01-02T14:27:53.002Z,7.73
2019-01-02T14:30:20.283Z,14.03
2019-01-02T14:32:47.539Z,12.13
2019-01-02T14:35:14.782Z,7.70
2019-01-02T14:37:42.062Z,10.40
2019-01-02T14:40:09.563Z,11.33
2019-01-02T14:42:36.848Z,18.17
2019-01-02T14:45:04.499Z,12.30
2019-01-02T14:47:31.762Z,7.20
2019-01-02T14:49:59.895Z,7.13
2019-01-02T14:52:27.156Z,8.63
2019-01-02T14:54:54.398Z,17.13
2019-01-02T14:57:21.686Z,16.43
2019-01-02T14:59:48.932Z,4.37
2019-01-02T15:02:16.175Z,13.63
2019-01-02T15:04:43.450Z,5.63
2019-01-02T15:07:10.726Z,8.37
2019-01-02T15:09:37.997Z,8.70
2019-01-02T15:12:05.243Z,9.70
2019-01-02T15:14:32.595Z,6.40
2019-01-02T15:16:59.837Z,18.40
2019-01-02T15:19:27.121Z,7.37
2019-01-02T15:21:54.366Z,7.97
2019-01-02T15:24:21.649Z,12.13
2019-01-02T15:26:48.890Z,6.70
2019-01-02T15:29:16.174Z,10.67
2019-01-02T15:31:43.717Z,8.60
2019-01-02T15:34:11.225Z,9.97
2019-01-02T15:36:38.493Z,11.20
2019-01-02T15:39:06.351Z,10.37
2019-01-02T15:41:33.592Z,7.77
2019-01-02T15:44:00.883Z,11.83
2019-01-02T15:46:28.140Z,10.23
2019-01-02T15:48:55.395Z,6.93
2019-01-02T15:51:23.043Z,11.53
2019-01-02T15:53:50.668Z,7.40
2019-01-02T15:56:17.942Z,12.23
2019-01-02T15:58:45.293Z,8.03
2019-01-02T16:01:12.582Z,9.60
2019-01-02T16:03:39.824Z,7.23
2019-01-02T16:06:07.077Z,11.00
2019-01-02T16:08:34.354Z,12.10
2019-01-02T16:11:01.626Z,3.97
2019-01-02T16:13:28.869Z,6.77
2019-01-02T16:15:56.138Z,5.43
2019-01-02T16:18:23.642Z,10.23
2019-01-02T16:20:51.496Z,9.53
2019-01-02T16:23:18.741Z,8.77
2019-01-02T16:25:45.990Z,11.60
2019-01-02T16:28:13.258Z,6.60
2019-01-02T16:30:40.531Z,8.87
2019-01-02T16:33:07.804Z,7.03
2019-01-02T16:35:35.044Z,10.17
2019-01-02T16:38:02.579Z,6.47
2019-01-02T16:40:29.850Z,6.80
2019-01-02T16:42:57.098Z,5.90
2019-01-02T16:45:24.368Z,9.03
2019-01-02T16:47:51.890Z,8.07
2019-01-02T16:50:19.158Z,7.67
2019-01-02T16:52:46.433Z,12.13
2019-01-02T16:55:13.678Z,8.47
2019-01-02T16:57:40.962Z,8.33
2019-01-02T17:00:10.082Z,12.33
2019-01-02T17:02:37.357Z,8.27
2019-01-02T17:05:04.631Z,8.30
2019-01-02T17:07:31.916Z,8.10
2019-01-02T17:09:59.415Z,5.47
2019-01-02T17:12:26.689Z,15.13
2019-01-02T17:14:53.971Z,7.77
2019-01-02T17:17:21.210Z,6.93
2019-01-02T17:19:48.480Z,8.57
2019-01-02T17:22:15.725Z,5.17
2019-01-02T17:24:42.998Z,5.17
2019-01-02T17:27:10.241Z,10.30
2019-01-02T17:29:37.514Z,5.43
2019-01-02T17:32:04.761Z,5.83
2019-01-02T17:34:32.002Z,4.93
2019-01-02T17:36:59.367Z,7.37
2019-01-02T17:39:26.601Z,7.93
2019-01-02T17:41:53.869Z,5.93
2019-01-02T17:44:21.145Z,8.97
2019-01-02T17:46:48.771Z,13.70
2019-01-02T17:49:16.024Z,5.90
2019-01-02T17:51:43.294Z,8.10
2019-01-02T17:54:10.537Z,5.30
2019-01-02T17:56:37.810Z,11.37
2019-01-02T17:59:05.050Z,4.93
2019-01-02T18:01:32.595Z,7.93
2019-01-02T18:03:59.930Z,11.30
2019-01-02T18:06:27.273Z,9.93
2019-01-02T18:08:54.518Z,5.63
2019-01-02T18:11:21.875Z,7.17
2019-01-02T18:13:49.131Z,14.30
2019-01-02T18:16:16.390Z,9.30
2019-01-02T18:18:43.745Z,11.13
2019-01-02T18:21:10.992Z,5.97
2019-01-02T18:23:38.489Z,11.70
2019-01-02T18:26:05.761Z,8.00
2019-01-02T18:28:33.302Z,6.30
2019-01-02T18:31:00.545Z,6.67
2019-01-02T18:33:27.823Z,5.77
2019-01-02T18:35:55.385Z,6.87
2019-01-02T18:38:22.621Z,8.23
2019-01-02T18:40:49.865Z,9.13
2019-01-02T18:43:17.155Z,15.43
2019-01-02T18:45:44.406Z,9.50
2019-01-02T18:48:11.909Z,10.30
2019-01-02T18:50:39.181Z,12.50
2019-01-02T18:53:06.425Z,11.23
2019-01-02T18:55:33.773Z,7.40
2019-01-02T18:58:01.015Z,4.97
2019-01-02T19:00:28.803Z,6.87
2019-01-02T19:02:56.261Z,8.40
2019-01-02T19:05:23.825Z,10.90
2019-01-02T19:07:51.146Z,7.40
2019-01-02T19:10:18.636Z,8.53
2019-01-02T19:12:45.906Z,8.70
2019-01-02T19:15:13.155Z,6.90
2019-01-02T19:17:40.631Z,11.40
2019-01-02T19:20:08.125Z,5.80
2019-01-02T19:22:35.395Z,6.23
2019-01-02T19:25:02.674Z,7.50
2019-01-02T19:27:30.206Z,3.33
2019-01-02T19:29:57.492Z,11.23
2019-01-02T19:32:24.733Z,7.13
2019-01-02T19:34:52.261Z,5.43
2019-01-02T19:37:19.754Z,7.30
2019-01-02T19:39:47.291Z,6.23
2019-01-02T19:42:14.796Z,8.50
2019-01-02T19:44:42.315Z,9.80
2019-01-02T19:47:09.866Z,5.80
2019-01-02T19:49:37.360Z,6.30
2019-01-02T19:52:04.884Z,7.83
2019-01-02T19:54:32.155Z,7.93
2019-01-02T19:56:59.397Z,6.17
2019-01-02T19:59:26.683Z,4.40
2019-01-02T20:01:54.027Z,7.33
2019-01-02T20:04:21.271Z,5.03
2019-01-02T20:06:48.627Z,10.23
2019-01-02T20:09:16.146Z,8.43
2019-01-02T20:11:43.437Z,3.60
2019-01-02T20:14:10.762Z,5.33
2019-01-02T20:16:38.004Z,6.37
2019-01-02T20:19:05.278Z,8.47
2019-01-02T20:21:32.522Z,5.03
2019-01-02T20:23:59.838Z,6.23
2019-01-02T20:26:31.511Z,5.20
2019-01-02T20:28:56.118Z,3.83
2019-01-02T20:31:23.471Z,4.53
2019-01-02T20:33:50.747Z,4.87
2019-01-02T20:36:18.297Z,6.27
2019-01-02T20:38:45.542Z,11.60
2019-01-02T20:41:13.044Z,5.67
2019-01-02T20:43:40.322Z,6.77
2019-01-02T20:46:07.744Z,7.30
2019-01-02T20:48:35.255Z,8.03
2019-01-02T20:51:02.798Z,3.90
2019-01-02T20:53:30.440Z,13.50
2019-01-02T20:55:57.972Z,4.60
2019-01-02T20:58:25.472Z,4.23
2019-01-02T21:00:52.755Z,4.47
2019-01-02T21:03:20.254Z,5.80
2019-01-02T21:05:47.752Z,4.03
2019-01-02T21:08:15.029Z,8.37
2019-01-02T21:10:42.269Z,8.00
2019-01-02T21:13:09.831Z,9.07
2019-01-02T21:15:37.356Z,7.43
2019-01-02T21:18:04.609Z,10.47
2019-01-02T21:20:31.884Z,4.80
2019-01-02T21:22:59.203Z,7.77
2019-01-02T21:25:26.745Z,4.73
2019-01-02T21:27:53.995Z,7.20
2019-01-02T21:30:21.280Z,8.87
2019-01-02T21:32:48.602Z,6.33
2019-01-02T21:35:16.198Z,8.53
2019-01-02T21:37:43.720Z,6.83
2019-01-02T21:40:10.995Z,8.50
2019-01-02T21:42:38.240Z,8.80
2019-01-02T21:45:05.959Z,5.20
2019-01-02T21:47:33.464Z,5.30
2019-01-02T21:50:00.703Z,6.63
2019-01-02T21:52:28.775Z,5.67
2019-01-02T21:54:56.310Z,12.13
2019-01-02T21:57:23.755Z,8.37
2019-01-02T21:59:51.031Z,7.43
2019-01-02T22:02:18.277Z,7.33
2019-01-02T22:04:45.546Z,6.80
2019-01-02T22:07:12.831Z,7.13
2019-01-02T22:09:40.350Z,8.27
2019-01-02T22:12:07.631Z,5.70
2019-01-02T22:14:34.883Z,10.97
2019-01-02T22:17:02.161Z,7.57
2019-01-02T22:19:29.673Z,7.60
2019-01-02T22:21:56.946Z,8.40
2019-01-02T22:24:24.303Z,9.27
2019-01-02T22:26:51.645Z,6.20
2019-01-02T22:29:19.196Z,18.43
2019-01-02T22:31:46.434Z,7.80
2019-01-02T22:34:13.937Z,10.50
2019-01-02T22:36:41.210Z,7.70
2019-01-02T22:39:08.710Z,11.17
2019-01-02T22:41:35.982Z,10.80
2019-01-02T22:44:03.234Z,6.53
2019-01-02T22:46:30.514Z,9.07
2019-01-02T22:48:57.791Z,5.60
2019-01-02T22:51:25.067Z,8.13
2019-01-02T22:53:52.321Z,8.93
2019-01-02T22:56:19.832Z,8.57
2019-01-02T22:58:47.074Z,7.50
2019-01-02T23:01:16.135Z,8.70
2019-01-02T23:03:57.070Z,7.10
2019-01-02T23:06:35.068Z,5.80
2019-01-02T23:09:12.802Z,10.83
2019-01-02T23:11:58.096Z,10.17
2019-01-02T23:14:43.030Z,8.13
2019-01-02T23:17:20.664Z,13.73
2019-01-02T23:20:05.582Z,6.23
2019-01-02T23:22:50.601Z,9.63
2019-01-02T23:25:22.202Z,4.83
2019-01-02T23:27:54.042Z,7.23
2019-01-02T23:30:35.034Z,10.00
2019-01-02T23:33:12.927Z,5.77
2019-01-02T23:35:58.269Z,8.20
2019-01-02T23:38:27.162Z,11.63
2019-01-02T23:41:12.488Z,5.00
2019-01-02T23:43:44.135Z,8.30
2019-01-02T23:46:15.754Z,9.03
2019-01-02T23:48:50.343Z,6.23
2019-01-02T23:51:34.415Z,10.43
2019-01-02T23:54:12.368Z,8.73
2019-01-02T23:56:52.913Z,8.70
2019-01-02T23:59:22.206Z,9.63
